Time;durP1;ratioP1;P1;durP2;ratioP2;P2;SDS_P1;SDS_P2;PMS_P1;PMS_P2;Temp;Humidity;BMP_temperature;BMP_pressure;BME280_temperature;BME280_humidity;BME280_pressure;Samples;Min_cycle;Max_cycle;Signal;HPM_P1;HPM_P2
2023/03/27 00:01:25;;;;;;;11.18;3.90;;;2.90;99.90;;;;;;4987206;28;20062;-73
2023/03/27 00:03:52;;;;;;;12.68;3.47;;;2.90;99.90;;;;;;4971578;28;20046;-73
2023/03/27 00:06:19;;;;;;;27.02;3.95;;;2.90;99.90;;;;;;4969528;28;20131;-73
2023/03/27 00:08:47;;;;;;;8.95;3.05;;;2.90;99.90;;;;;;4972442;28;20082;-72
2023/03/27 00:11:13;;;;;;;7.75;3.33;;;2.80;99.90;;;;;;4987212;28;20502;-73
2023/03/27 00:13:40;;;;;;;11.25;3.63;;;2.80;99.90;;;;;;4971019;28;20042;-73
2023/03/27 00:16:07;;;;;;;14.38;3.83;;;2.80;99.90;;;;;;4985030;28;20431;-73
2023/03/27 00:18:32;;;;;;;7.63;3.08;;;2.80;99.90;;;;;;4971318;28;20462;-73
2023/03/27 00:21:02;;;;;;;11.63;3.42;;;2.80;99.90;;;;;;4955165;28;20046;-73
2023/03/27 00:23:28;;;;;;;9.35;2.67;;;2.80;99.90;;;;;;4965441;28;20452;-73
2023/03/27 00:25:56;;;;;;;9.23;3.45;;;2.80;99.90;;;;;;4969100;28;20065;-73
2023/03/27 00:28:26;;;;;;;4.82;2.85;;;2.70;99.90;;;;;;4967431;28;20042;-73
2023/03/27 00:30:53;;;;;;;9.57;3.10;;;2.70;99.90;;;;;;4968998;28;20381;-73
2023/03/27 00:33:19;;;;;;;16.23;3.35;;;2.70;99.90;;;;;;4968214;28;20054;-73
2023/03/27 00:35:47;;;;;;;12.68;3.40;;;2.70;99.90;;;;;;4968231;28;20455;-72
2023/03/27 00:38:14;;;;;;;16.13;3.60;;;2.70;99.90;;;;;;4962976;28;20122;-73
2023/03/27 00:40:40;;;;;;;10.32;3.42;;;2.60;99.90;;;;;;4966053;28;20057;-73
2023/03/27 00:43:26;;;;;;;8.32;3.35;;;2.60;99.90;;;;;;4968364;28;20504;-73
2023/03/27 00:46:01;;;;;;;10.32;3.13;;;2.60;99.90;;;;;;4978607;28;20539;-73
2023/03/27 00:48:30;;;;;;;8.43;4.18;;;2.60;99.90;;;;;;4968010;28;20050;-73
2023/03/27 00:50:57;;;;;;;16.85;3.67;;;2.60;99.90;;;;;;4968642;28;20061;-73
2023/03/27 00:53:28;;;;;;;16.15;2.95;;;2.60;99.90;;;;;;4983731;28;20050;-73
2023/03/27 00:55:58;;;;;;;12.15;3.35;;;2.60;99.90;;;;;;4967100;28;20405;-73
2023/03/27 00:58:36;;;;;;;9.85;3.00;;;2.60;99.90;;;;;;4966158;28;20061;-73
2023/03/27 01:01:02;;;;;;;15.13;3.55;;;2.60;99.90;;;;;;4968601;28;20043;-72
2023/03/27 01:03:31;;;;;;;14.80;2.92;;;2.60;99.90;;;;;;4970916;28;20046;-73
2023/03/27 01:06:00;;;;;;;13.73;3.42;;;2.60;99.90;;;;;;4968771;28;20098;-73
2023/03/27 01:08:28;;;;;;;10.77;2.78;;;2.50;99.90;;;;;;4968301;28;20074;-73
2023/03/27 01:11:12;;;;;;;8.55;3.15;;;2.50;99.90;;;;;;4950636;28;20070;-73
2023/03/27 01:14:16;;;;;;;11.00;3.30;;;2.50;99.90;;;;;;4982259;28;20047;-73
2023/03/27 01:17:00;;;;;;;10.98;2.80;;;2.50;99.90;;;;;;4980525;28;20141;-73
2023/03/27 01:19:56;;;;;;;12.90;3.78;;;2.50;99.90;;;;;;4971168;28;20547;-73
2023/03/27 01:22:53;;;;;;;12.73;3.25;;;2.50;99.90;;;;;;4986792;28;20059;-73
2023/03/27 01:26:00;;;;;;;20.00;3.63;;;2.50;99.90;;;;;;4969666;28;20047;-73
2023/03/27 01:29:11;;;;;;;14.50;3.40;;;2.50;99.90;;;;;;4952839;28;20055;-73
2023/03/27 01:31:58;;;;;;;4.47;2.72;;;2.40;99.90;;;;;;4915186;28;20056;-73
2023/03/27 01:34:47;;;;;;;11.38;3.42;;;2.40;99.90;;;;;;4970662;28;20055;-73
2023/03/27 01:37:46;;;;;;;13.77;3.35;;;2.40;99.90;;;;;;4971063;28;20051;-73
2023/03/27 01:40:44;;;;;;;9.63;2.67;;;2.40;99.90;;;;;;4970802;28;20102;-73
2023/03/27 01:43:34;;;;;;;11.98;3.75;;;2.40;99.90;;;;;;4965571;28;20101;-73
2023/03/27 01:46:40;;;;;;;7.50;2.95;;;2.30;99.90;;;;;;4982778;28;20643;-73
2023/03/27 01:49:32;;;;;;;11.80;3.13;;;2.30;99.90;;;;;;4959390;28;20767;-73
2023/03/27 01:52:03;;;;;;;7.85;2.78;;;2.30;99.90;;;;;;4964156;28;20051;-73
2023/03/27 01:54:36;;;;;;;10.93;2.55;;;2.30;99.90;;;;;;4970295;28;20415;-73
2023/03/27 01:57:11;;;;;;;7.72;2.47;;;2.30;99.90;;;;;;4970456;28;20433;-73
2023/03/27 01:59:41;;;;;;;7.30;2.85;;;2.30;99.90;;;;;;4985457;28;20539;-73
2023/03/27 02:02:22;;;;;;;17.52;3.42;;;2.30;99.90;;;;;;4978693;28;20047;-73
2023/03/27 02:04:57;;;;;;;15.68;3.17;;;2.30;99.90;;;;;;4969233;28;20496;-73
2023/03/27 02:07:32;;;;;;;14.80;3.22;;;2.30;99.90;;;;;;4966629;28;20051;-73
2023/03/27 02:10:01;;;;;;;6.72;2.72;;;2.30;99.90;;;;;;4986593;28;20050;-73
2023/03/27 02:12:31;;;;;;;13.50;2.53;;;2.30;99.90;;;;;;4954103;28;20093;-73
2023/03/27 02:15:08;;;;;;;6.78;2.78;;;2.30;99.90;;;;;;4986232;28;20918;-73
2023/03/27 02:17:46;;;;;;;11.40;3.50;;;2.30;99.90;;;;;;4966835;28;20138;-73
2023/03/27 02:20:14;;;;;;;18.13;3.42;;;2.20;99.90;;;;;;4969970;28;20511;-72
2023/03/27 02:22:42;;;;;;;11.55;2.97;;;2.20;99.90;;;;;;4964763;28;20101;-73
2023/03/27 02:25:28;;;;;;;9.37;2.97;;;2.20;99.90;;;;;;4989757;28;20104;-73
2023/03/27 02:28:13;;;;;;;5.28;2.30;;;2.20;99.90;;;;;;4968480;28;20104;-73
2023/03/27 02:31:00;;;;;;;11.32;3.38;;;2.20;99.90;;;;;;4965873;28;20054;-73
2023/03/27 02:33:38;;;;;;;8.07;2.93;;;2.20;99.90;;;;;;4971344;28;20488;-73
2023/03/27 02:36:20;;;;;;;12.10;2.85;;;2.20;99.90;;;;;;4973211;28;20050;-73
2023/03/27 02:39:00;;;;;;;8.32;2.75;;;2.10;99.90;;;;;;4972551;28;20058;-73
2023/03/27 02:41:35;;;;;;;9.10;2.78;;;2.10;99.90;;;;;;4973081;28;20061;-73
2023/03/27 02:44:44;;;;;;;7.28;2.97;;;2.00;99.90;;;;;;4977303;28;20042;-73
2023/03/27 02:47:15;;;;;;;18.05;2.88;;;2.00;99.90;;;;;;4970820;28;20678;-73
2023/03/27 02:50:01;;;;;;;8.32;2.30;;;2.00;99.90;;;;;;4967848;28;20085;-73
2023/03/27 02:52:42;;;;;;;13.35;2.03;;;1.90;99.90;;;;;;4972277;28;20050;-73
2023/03/27 02:55:15;;;;;;;7.00;2.13;;;1.90;99.90;;;;;;4973192;28;20090;-73
2023/03/27 02:57:45;;;;;;;6.55;1.98;;;1.90;99.90;;;;;;4972929;28;20047;-73
2023/03/27 03:00:24;;;;;;;4.72;2.30;;;1.80;99.90;;;;;;4972386;28;20046;-73
2023/03/27 03:03:04;;;;;;;7.22;3.60;;;1.80;99.90;;;;;;4976434;28;20038;-73
2023/03/27 03:05:31;;;;;;;9.63;3.22;;;1.80;99.90;;;;;;4971684;28;20050;-73
2023/03/27 03:07:58;;;;;;;10.98;3.38;;;1.80;99.90;;;;;;4990781;28;20472;-73
2023/03/27 03:10:25;;;;;;;7.40;2.88;;;1.80;99.90;;;;;;4989480;28;20816;-73
2023/03/27 03:12:51;;;;;;;10.45;2.97;;;1.80;99.90;;;;;;4989337;28;20146;-73
2023/03/27 03:15:17;;;;;;;12.07;3.28;;;1.90;99.90;;;;;;4968415;28;20137;-73
2023/03/27 03:17:43;;;;;;;6.50;2.42;;;1.90;99.90;;;;;;4972574;28;20846;-73
2023/03/27 03:20:11;;;;;;;10.32;3.13;;;2.00;99.90;;;;;;4984619;28;20058;-73
2023/03/27 03:22:38;;;;;;;11.40;2.70;;;1.90;99.90;;;;;;4972001;28;20117;-73
2023/03/27 03:25:06;;;;;;;11.53;3.37;;;2.00;99.90;;;;;;4988890;28;20062;-73
2023/03/27 03:27:33;;;;;;;11.93;3.20;;;2.00;99.90;;;;;;4965490;28;20505;-73
2023/03/27 03:29:59;;;;;;;7.88;3.30;;;2.00;99.90;;;;;;4989416;28;20870;-73
2023/03/27 03:32:26;;;;;;;9.40;3.38;;;2.00;99.90;;;;;;4986217;28;20061;-73
2023/03/27 03:34:52;;;;;;;8.30;2.50;;;2.00;99.90;;;;;;4970671;28;20049;-73
2023/03/27 03:37:18;;;;;;;5.93;2.70;;;2.00;99.90;;;;;;4983184;28;20143;-73
2023/03/27 03:39:45;;;;;;;9.57;2.50;;;1.90;99.90;;;;;;4989461;28;20116;-74
2023/03/27 03:42:11;;;;;;;12.02;3.20;;;1.90;99.90;;;;;;4971192;28;20054;-73
2023/03/27 03:44:37;;;;;;;6.95;2.10;;;1.90;99.90;;;;;;4971585;28;20060;-73
2023/03/27 03:47:03;;;;;;;5.82;2.92;;;1.80;99.90;;;;;;4965589;28;20428;-74
2023/03/27 03:49:30;;;;;;;6.13;3.15;;;1.80;99.90;;;;;;4972154;28;20819;-73
2023/03/27 03:51:56;;;;;;;14.00;2.78;;;1.80;99.90;;;;;;4988221;28;20061;-73
2023/03/27 03:54:21;;;;;;;8.10;2.33;;;1.80;99.90;;;;;;4987896;28;20054;-73
2023/03/27 03:56:47;;;;;;;11.55;3.22;;;1.80;99.90;;;;;;4966869;28;20411;-73
2023/03/27 03:59:13;;;;;;;6.63;2.65;;;1.70;99.90;;;;;;4986660;28;20053;-73
2023/03/27 04:01:39;;;;;;;12.45;3.60;;;1.70;99.90;;;;;;4972933;28;20042;-73
2023/03/27 04:04:08;;;;;;;12.63;3.03;;;1.60;99.90;;;;;;4987901;28;20488;-74
2023/03/27 04:06:37;;;;;;;8.18;2.38;;;1.60;99.90;;;;;;4971158;28;20050;-73
2023/03/27 04:09:04;;;;;;;11.50;3.92;;;1.60;99.90;;;;;;4971932;28;20046;-73
2023/03/27 04:11:30;;;;;;;9.20;2.70;;;1.50;99.90;;;;;;4987622;28;20047;-73
2023/03/27 04:13:55;;;;;;;8.32;2.85;;;1.50;99.90;;;;;;4971547;28;20073;-74
2023/03/27 04:16:21;;;;;;;9.93;2.50;;;1.50;99.90;;;;;;4972760;28;20840;-73
2023/03/27 04:18:49;;;;;;;18.42;3.72;;;1.40;99.90;;;;;;4971170;28;20459;-73
2023/03/27 04:21:16;;;;;;;11.75;3.20;;;1.40;99.90;;;;;;4988688;28;20062;-73
2023/03/27 04:23:44;;;;;;;8.23;2.85;;;1.40;99.90;;;;;;4962947;28;20059;-73
2023/03/27 04:26:14;;;;;;;10.88;3.25;;;1.30;99.90;;;;;;4968091;28;20138;-73
2023/03/27 04:28:40;;;;;;;8.70;2.95;;;1.30;99.90;;;;;;4969910;28;20050;-73
2023/03/27 04:31:09;;;;;;;11.65;3.45;;;1.30;99.90;;;;;;4984189;28;20058;-74
2023/03/27 04:33:38;;;;;;;10.05;3.72;;;1.30;99.90;;;;;;4966560;28;20051;-73
2023/03/27 04:36:08;;;;;;;7.70;3.08;;;1.30;99.90;;;;;;4960735;28;20074;-73
2023/03/27 04:38:38;;;;;;;6.93;3.38;;;1.30;99.90;;;;;;4984445;28;20161;-74
2023/03/27 04:41:05;;;;;;;8.15;2.70;;;1.30;99.90;;;;;;4967490;28;20078;-74
2023/03/27 04:43:30;;;;;;;6.88;3.25;;;1.30;99.90;;;;;;4967454;28;20406;-73
2023/03/27 04:45:56;;;;;;;12.27;4.07;;;1.30;99.90;;;;;;4967604;28;20042;-73
2023/03/27 04:48:22;;;;;;;10.98;3.88;;;1.40;99.90;;;;;;4968829;28;20564;-73
2023/03/27 04:50:51;;;;;;;7.80;3.22;;;1.40;99.90;;;;;;4968804;28;20046;-74
2023/03/27 04:53:19;;;;;;;8.20;3.33;;;1.50;99.90;;;;;;4953292;28;20042;-74
2023/03/27 04:55:45;;;;;;;5.82;2.40;;;1.50;99.90;;;;;;4955543;28;20512;-73
2023/03/27 04:58:12;;;;;;;7.18;3.33;;;1.50;99.90;;;;;;4971573;28;20559;-73
2023/03/27 05:00:39;;;;;;;6.57;2.75;;;1.50;99.90;;;;;;4969450;28;20046;-73
2023/03/27 05:03:05;;;;;;;9.77;2.97;;;1.50;99.90;;;;;;4969447;28;20145;-73
2023/03/27 05:05:30;;;;;;;7.18;3.17;;;1.50;99.90;;;;;;4970384;28;20051;-73
2023/03/27 05:07:56;;;;;;;11.93;3.10;;;1.50;99.90;;;;;;4971249;28;20058;-73
2023/03/27 05:10:23;;;;;;;10.20;3.35;;;1.50;99.90;;;;;;4971156;28;20059;-73
2023/03/27 05:12:50;;;;;;;18.20;3.67;;;1.50;99.90;;;;;;4968896;28;20042;-73
2023/03/27 05:15:17;;;;;;;8.05;3.15;;;1.50;99.90;;;;;;4972250;28;20086;-73
2023/03/27 05:17:45;;;;;;;11.73;3.30;;;1.40;99.90;;;;;;4983605;28;20051;-73
2023/03/27 05:20:13;;;;;;;6.93;3.28;;;1.40;99.90;;;;;;4987478;28;20050;-73
2023/03/27 05:22:40;;;;;;;8.70;3.30;;;1.40;99.90;;;;;;4970491;28;20121;-73
2023/03/27 05:25:07;;;;;;;7.78;3.15;;;1.40;99.90;;;;;;4988969;28;20124;-73
2023/03/27 05:27:33;;;;;;;7.93;3.53;;;1.40;99.90;;;;;;4971098;28;20046;-73
2023/03/27 05:29:59;;;;;;;7.68;3.60;;;1.40;99.90;;;;;;4966632;28;20050;-73
2023/03/27 05:32:25;;;;;;;13.65;3.58;;;1.40;99.90;;;;;;4968131;28;20058;-73
2023/03/27 05:34:53;;;;;;;8.15;4.40;;;1.40;99.90;;;;;;4972344;28;20493;-73
2023/03/27 05:37:22;;;;;;;12.40;3.45;;;1.40;99.90;;;;;;4973450;28;20054;-73
2023/03/27 05:39:48;;;;;;;10.50;4.32;;;1.50;99.90;;;;;;4972442;28;20612;-73
2023/03/27 05:42:14;;;;;;;7.63;3.03;;;1.50;99.90;;;;;;4990074;28;20046;-73
2023/03/27 05:44:43;;;;;;;10.48;3.50;;;1.60;99.90;;;;;;4972340;28;20387;-73
2023/03/27 05:47:11;;;;;;;10.55;3.08;;;1.60;99.90;;;;;;4985496;28;20057;-73
2023/03/27 05:49:38;;;;;;;9.85;3.22;;;1.70;99.90;;;;;;4972670;28;20058;-73
2023/03/27 05:52:04;;;;;;;9.75;3.85;;;1.80;99.90;;;;;;4972517;28;20529;-74
2023/03/27 05:54:30;;;;;;;8.77;3.90;;;2.40;99.90;;;;;;4994385;28;20050;-73
2023/03/27 05:56:56;;;;;;;18.42;3.38;;;3.10;99.90;;;;;;4988494;28;20042;-73
2023/03/27 05:59:21;;;;;;;11.90;3.35;;;3.70;99.90;;;;;;4990326;28;20050;-74
2023/03/27 06:01:48;;;;;;;11.88;3.58;;;3.70;99.90;;;;;;4994698;28;20503;-73
2023/03/27 06:04:18;;;;;;;7.70;3.40;;;3.60;99.90;;;;;;4973281;28;20061;-73
2023/03/27 06:06:44;;;;;;;11.27;3.22;;;4.30;99.90;;;;;;4972990;28;20496;-73
2023/03/27 06:09:11;;;;;;;7.03;2.70;;;5.20;99.90;;;;;;4987704;28;20050;-73
2023/03/27 06:11:38;;;;;;;17.75;2.90;;;6.00;99.90;;;;;;4972523;28;20109;-73
2023/03/27 06:14:03;;;;;;;12.48;3.35;;;6.60;99.90;;;;;;4986781;28;20061;-73
2023/03/27 06:16:29;;;;;;;8.82;3.58;;;7.10;99.90;;;;;;4988259;28;20054;-73
2023/03/27 06:18:55;;;;;;;6.25;2.15;;;7.30;99.90;;;;;;4970246;28;20046;-72
2023/03/27 06:21:21;;;;;;;11.73;2.50;;;7.60;99.90;;;;;;4988406;28;20048;-72
2023/03/27 06:23:47;;;;;;;7.22;2.55;;;8.00;99.90;;;;;;4989935;28;20422;-72
2023/03/27 06:26:14;;;;;;;5.68;2.15;;;8.20;99.90;;;;;;4969703;28;20436;-73
2023/03/27 06:28:39;;;;;;;6.13;1.80;;;8.20;99.90;;;;;;4973866;28;20509;-73
2023/03/27 06:31:06;;;;;;;7.40;2.03;;;7.90;99.90;;;;;;4990920;28;20046;-72
2023/03/27 06:33:31;;;;;;;7.05;2.13;;;7.80;99.90;;;;;;4993754;28;20074;-73
2023/03/27 06:35:59;;;;;;;10.18;2.40;;;8.10;99.90;;;;;;4976779;28;20448;-72
2023/03/27 06:38:31;;;;;;;15.00;2.28;;;8.20;99.90;;;;;;4987926;28;20134;-72
2023/03/27 06:40:58;;;;;;;7.25;1.73;;;8.30;99.90;;;;;;4983837;28;20050;-73
2023/03/27 06:43:24;;;;;;;4.60;1.20;;;8.20;99.90;;;;;;4965400;28;20408;-73
2023/03/27 06:45:51;;;;;;;11.23;2.60;;;8.20;99.90;;;;;;4989044;28;20047;-73
2023/03/27 06:48:19;;;;;;;4.38;2.13;;;8.10;99.90;;;;;;4990672;28;20054;-73
2023/03/27 06:50:47;;;;;;;5.93;2.65;;;8.10;99.90;;;;;;4984926;28;20101;-73
2023/03/27 06:53:15;;;;;;;9.80;2.45;;;8.00;99.90;;;;;;4972821;28;20045;-73
2023/03/27 06:55:41;;;;;;;;;;;8.10;99.90;;;;;;4988962;28;20165;-73
2023/03/27 06:58:07;;;;;;;10.70;2.55;;;8.20;99.90;;;;;;4971130;28;20016;-73
2023/03/27 07:00:36;;;;;;;7.25;2.00;;;8.60;99.90;;;;;;4994117;28;20054;-73
2023/03/27 07:03:04;;;;;;;16.40;2.65;;;8.70;99.90;;;;;;4971921;28;20492;-73
2023/03/27 07:05:35;;;;;;;5.80;1.60;;;8.90;99.90;;;;;;4970006;28;20127;-73
2023/03/27 07:08:01;;;;;;;10.93;1.90;;;9.00;99.90;;;;;;4989001;28;20050;-73
2023/03/27 07:10:27;;;;;;;5.03;1.95;;;9.10;99.90;;;;;;4989639;28;20531;-73
2023/03/27 07:12:53;;;;;;;3.83;1.55;;;9.20;99.90;;;;;;4982538;28;20144;-73
2023/03/27 07:15:19;;;;;;;4.47;1.60;;;9.20;99.90;;;;;;4988154;28;20050;-73
2023/03/27 07:17:55;;;;;;;2.63;1.63;;;9.10;99.90;;;;;;4956101;28;20113;-73
2023/03/27 07:20:22;;;;;;;3.55;1.80;;;9.10;99.90;;;;;;4982804;28;20085;-73
2023/03/27 07:22:48;;;;;;;5.22;1.80;;;9.00;99.90;;;;;;4970977;28;20417;-73
2023/03/27 07:25:14;;;;;;;5.57;1.65;;;8.90;99.90;;;;;;4968705;28;20062;-73
2023/03/27 07:27:40;;;;;;;9.20;2.20;;;8.80;99.90;;;;;;4975956;28;20050;-73
2023/03/27 07:30:07;;;;;;;4.57;1.80;;;8.60;99.90;;;;;;4989495;28;20125;-73
2023/03/27 07:32:34;;;;;;;5.43;1.77;;;8.50;99.90;;;;;;4976204;28;20050;-73
2023/03/27 07:35:00;;;;;;;5.13;1.67;;;8.30;99.90;;;;;;4972226;28;20530;-73
2023/03/27 07:37:26;;;;;;;13.05;2.25;;;8.30;99.90;;;;;;4989554;28;20081;-73
2023/03/27 07:39:52;;;;;;;6.57;1.85;;;8.20;99.90;;;;;;4986694;28;20054;-73
2023/03/27 07:42:18;;;;;;;9.75;1.83;;;8.20;99.90;;;;;;4971460;28;20053;-73
2023/03/27 07:44:44;;;;;;;4.88;2.53;;;8.20;99.90;;;;;;4969137;28;20123;-73
2023/03/27 07:47:11;;;;;;;6.80;1.83;;;8.20;99.90;;;;;;4970090;28;20054;-73
2023/03/27 07:49:36;;;;;;;4.07;1.70;;;8.20;99.90;;;;;;4985994;28;20124;-72
2023/03/27 07:52:03;;;;;;;9.40;2.33;;;8.30;99.90;;;;;;4971652;28;20645;-72
2023/03/27 07:54:30;;;;;;;13.40;3.40;;;8.30;99.90;;;;;;4972125;28;20050;-72
2023/03/27 07:56:56;;;;;;;10.80;1.88;;;8.40;99.90;;;;;;4971001;28;20050;-73
2023/03/27 07:59:22;;;;;;;16.75;3.58;;;8.40;99.90;;;;;;4970865;28;20509;-75
2023/03/27 08:01:49;;;;;;;14.70;3.95;;;8.40;99.90;;;;;;4990994;28;20050;-75
2023/03/27 08:04:19;;;;;;;7.03;2.67;;;8.40;99.90;;;;;;4971142;28;20062;-75
2023/03/27 08:06:45;;;;;;;11.85;4.18;;;8.40;99.90;;;;;;4989124;28;20046;-75
2023/03/27 08:09:11;;;;;;;11.15;2.85;;;8.40;99.90;;;;;;4987749;28;20082;-75
2023/03/27 08:11:39;;;;;;;6.18;2.55;;;8.50;99.90;;;;;;4988596;28;20472;-74
2023/03/27 08:14:06;;;;;;;14.00;3.55;;;8.50;99.90;;;;;;4988106;28;20053;-74
2023/03/27 08:16:31;;;;;;;12.02;2.92;;;8.60;99.90;;;;;;4987958;28;20069;-74
2023/03/27 08:19:00;;;;;;;6.55;2.63;;;8.70;99.90;;;;;;4988721;28;20507;-75
2023/03/27 08:21:25;;;;;;;11.15;3.33;;;8.60;99.90;;;;;;4987723;28;20438;-74
2023/03/27 08:23:51;;;;;;;8.32;2.67;;;8.50;99.90;;;;;;4987640;28;20129;-74
2023/03/27 08:26:17;;;;;;;15.98;2.85;;;8.40;99.90;;;;;;4993480;28;20621;-74
2023/03/27 08:28:42;;;;;;;7.55;2.08;;;8.10;99.90;;;;;;4988569;28;20042;-74
2023/03/27 08:31:13;;;;;;;2.72;1.45;;;7.90;99.90;;;;;;4986989;28;20049;-74
2023/03/27 08:33:40;;;;;;;7.95;2.60;;;7.70;99.90;;;;;;4987629;28;20121;-75
2023/03/27 08:36:08;;;;;;;5.45;2.17;;;7.70;99.90;;;;;;4978615;28;20030;-75
2023/03/27 08:38:34;;;;;;;8.87;2.00;;;7.80;99.90;;;;;;4987870;28;20703;-74
2023/03/27 08:41:02;;;;;;;3.60;1.60;;;7.90;99.90;;;;;;4970685;28;20285;-75
2023/03/27 08:43:35;;;;;;;4.25;1.98;;;8.00;99.90;;;;;;4988651;28;20046;-74
2023/03/27 08:46:30;;;;;;;10.77;2.20;;;8.20;99.90;;;;;;4988034;28;20160;-75
2023/03/27 08:48:58;;;;;;;8.25;1.45;;;8.20;99.90;;;;;;4975662;28;20054;-75
2023/03/27 08:51:26;;;;;;;4.90;1.80;;;8.20;99.90;;;;;;4988531;28;20076;-75
2023/03/27 08:54:15;;;;;;;5.95;2.25;;;8.20;99.90;;;;;;4988348;28;20480;-74
2023/03/27 08:56:41;;;;;;;5.90;1.83;;;8.30;99.90;;;;;;4971022;28;20043;-74
2023/03/27 08:59:14;;;;;;;3.53;1.67;;;8.40;99.90;;;;;;4987650;28;20053;-74
2023/03/27 09:02:11;;;;;;;4.70;1.90;;;8.40;99.90;;;;;;4988338;28;20061;-75
2023/03/27 09:04:47;;;;;;;2.88;1.08;;;8.40;99.90;;;;;;4970386;28;20145;-75
2023/03/27 09:07:13;;;;;;;8.02;2.65;;;8.50;99.90;;;;;;4979640;28;20043;-75
2023/03/27 09:09:51;;;;;;;5.50;1.98;;;8.60;99.90;;;;;;4986936;28;20049;-75
2023/03/27 09:12:51;;;;;;;3.72;1.63;;;8.70;99.90;;;;;;4982644;28;20507;-75
2023/03/27 09:15:24;;;;;;;5.03;1.88;;;8.90;99.90;;;;;;4991282;28;20084;-75
2023/03/27 09:18:00;;;;;;;4.70;2.22;;;9.10;99.90;;;;;;4972764;28;20503;-75
2023/03/27 09:20:44;;;;;;;6.47;2.13;;;9.20;99.90;;;;;;4975678;28;20138;-73
2023/03/27 09:23:33;;;;;;;5.63;1.70;;;9.40;99.90;;;;;;4970083;28;20054;-73
2023/03/27 09:26:29;;;;;;;5.68;2.22;;;9.50;99.90;;;;;;4987212;28;20050;-73
2023/03/27 09:29:00;;;;;;;5.88;1.90;;;9.70;99.90;;;;;;4980446;28;20897;-73
2023/03/27 09:31:38;;;;;;;9.82;2.83;;;9.90;99.90;;;;;;4987923;28;20050;-74
2023/03/27 09:34:06;;;;;;;9.30;2.88;;;10.00;99.90;;;;;;4987704;28;20042;-73
2023/03/27 09:36:34;;;;;;;2.85;1.67;;;10.10;99.90;;;;;;4972728;28;20046;-73
2023/03/27 09:39:06;;;;;;;5.50;1.83;;;10.00;99.90;;;;;;4987661;28;20046;-74
2023/03/27 09:41:52;;;;;;;6.50;2.25;;;9.80;99.90;;;;;;4988685;28;20086;-74
2023/03/27 09:44:29;;;;;;;4.00;1.60;;;9.80;99.90;;;;;;4988132;28;20108;-74
2023/03/27 09:47:06;;;;;;;4.53;2.20;;;9.90;99.90;;;;;;4992056;28;20042;-74
2023/03/27 09:49:33;;;;;;;8.18;2.00;;;10.00;99.90;;;;;;4968918;28;20085;-74
2023/03/27 09:52:01;;;;;;;5.40;2.28;;;10.10;99.90;;;;;;4972636;28;20046;-74
2023/03/27 09:54:31;;;;;;;20.13;3.40;;;10.00;99.90;;;;;;4990862;28;20050;-73
2023/03/27 09:57:09;;;;;;;4.97;2.20;;;9.80;99.90;;;;;;4990038;28;20050;-73
2023/03/27 09:59:50;;;;;;;6.05;1.85;;;9.60;99.90;;;;;;4990810;28;20380;-74
2023/03/27 10:02:30;;;;;;;5.50;1.80;;;9.70;99.90;;;;;;4989287;28;20058;-74
2023/03/27 10:05:10;;;;;;;8.43;2.30;;;9.70;99.90;;;;;;4982540;28;20050;-73
2023/03/27 10:07:38;;;;;;;6.93;1.92;;;9.80;99.90;;;;;;4989847;28;20713;-74
2023/03/27 10:10:18;;;;;;;3.30;1.40;;;10.00;99.90;;;;;;4977516;28;20050;-74
2023/03/27 10:12:54;;;;;;;7.13;1.90;;;10.00;99.90;;;;;;4990778;28;20290;-74
2023/03/27 10:15:37;;;;;;;6.28;1.65;;;9.80;98.10;;;;;;4972687;28;20059;-74
2023/03/27 10:18:07;;;;;;;4.32;1.50;;;9.80;86.80;;;;;;4987742;28;20541;-74
2023/03/27 10:20:33;;;;;;;7.07;1.40;;;9.90;85.80;;;;;;4989050;28;20692;-74
2023/03/27 10:23:01;;;;;;;5.55;1.75;;;10.00;86.90;;;;;;4971413;28;20046;-74
2023/03/27 10:25:37;;;;;;;2.22;1.10;;;10.20;82.20;;;;;;4972735;28;20050;-74
2023/03/27 10:28:23;;;;;;;4.93;0.90;;;10.50;80.00;;;;;;4971434;28;20070;-74
2023/03/27 10:31:00;;;;;;;8.23;1.52;;;10.70;74.90;;;;;;4990482;28;20052;-74
2023/03/27 10:33:35;;;;;;;3.63;1.00;;;10.80;72.60;;;;;;4981367;28;20049;-74
2023/03/27 10:36:03;;;;;;;3.08;1.52;;;10.80;72.20;;;;;;4988817;28;20297;-73
2023/03/27 10:38:31;;;;;;;2.35;1.15;;;10.80;71.20;;;;;;4971773;28;20168;-72
2023/03/27 10:40:57;;;;;;;3.42;1.35;;;10.90;70.40;;;;;;4980182;28;20038;-73
2023/03/27 10:43:43;;;;;;;1.65;1.00;;;11.00;71.40;;;;;;4988465;28;20496;-73
2023/03/27 10:46:12;;;;;;;2.38;1.08;;;11.00;71.20;;;;;;4988496;28;20050;-73
2023/03/27 10:49:08;;;;;;;4.30;1.48;;;10.80;71.00;;;;;;4990195;28;20046;-74
2023/03/27 10:51:53;;;;;;;2.22;1.13;;;10.50;69.30;;;;;;4975794;28;20662;-74
2023/03/27 10:54:30;;;;;;;1.80;1.30;;;10.30;71.10;;;;;;4986987;28;20088;-74
2023/03/27 10:57:02;;;;;;;5.43;1.40;;;10.20;73.70;;;;;;4990340;28;20046;-74
2023/03/27 10:59:46;;;;;;;5.05;2.20;;;10.40;73.70;;;;;;4972186;28;20069;-74
2023/03/27 11:02:18;;;;;;;2.47;1.33;;;10.60;77.60;;;;;;4990288;28;20141;-74
2023/03/27 11:05:03;;;;;;;4.38;1.50;;;10.90;74.40;;;;;;4988945;28;20050;-74
2023/03/27 11:07:38;;;;;;;6.88;2.13;;;11.20;75.10;;;;;;4968832;28;20061;-74
2023/03/27 11:10:32;;;;;;;9.73;1.63;;;11.30;72.90;;;;;;4989910;28;20057;-74
2023/03/27 11:13:04;;;;;;;4.13;1.67;;;11.40;71.40;;;;;;4983717;28;20105;-74
2023/03/27 11:15:40;;;;;;;2.75;1.27;;;11.40;70.20;;;;;;4989951;28;20061;-74
2023/03/27 11:18:22;;;;;;;2.72;1.33;;;11.60;69.40;;;;;;4973059;28;20058;-74
2023/03/27 11:21:47;;;;;;;4.57;1.52;;;11.70;68.10;;;;;;4972139;28;20054;-74
2023/03/27 11:24:37;;;;;;;2.47;1.20;;;11.90;67.00;;;;;;4949723;28;20042;-74
2023/03/27 11:27:14;;;;;;;2.72;1.20;;;12.00;65.00;;;;;;4969141;28;20050;-74
2023/03/27 11:30:09;;;;;;;2.45;0.75;;;12.00;64.90;;;;;;4988924;28;20046;-74
2023/03/27 11:32:47;;;;;;;3.17;2.72;;;12.00;65.00;;;;;;4983159;28;20061;-74
2023/03/27 11:35:20;;;;;;;11.30;1.77;;;11.90;63.90;;;;;;4968694;28;20046;-74
2023/03/27 11:38:07;;;;;;;9.38;4.97;;;11.80;63.50;;;;;;4989812;28;20042;-74
2023/03/27 11:40:41;;;;;;;13.18;6.25;;;11.80;63.90;;;;;;4972054;28;20042;-74
2023/03/27 11:43:10;;;;;;;2.47;1.85;;;11.80;64.70;;;;;;4988166;28;20504;-74
2023/03/27 11:46:02;;;;;;;4.05;1.48;;;11.90;65.80;;;;;;4988769;28;20161;-74
2023/03/27 11:48:40;;;;;;;6.75;1.50;;;12.00;63.00;;;;;;4971523;28;20058;-74
2023/03/27 11:51:15;;;;;;;;;;;11.80;61.50;;;;;;4967551;28;20046;-73
2023/03/27 11:54:02;;;;;;;3.72;1.35;;;11.70;64.00;;;;;;4982299;28;20350;-73
2023/03/27 11:56:37;;;;;;;2.00;0.90;;;11.80;63.20;;;;;;4964826;28;20077;-73
2023/03/27 11:59:19;;;;;;;1.75;1.15;;;12.00;63.10;;;;;;4970714;28;20042;-74
2023/03/27 12:02:01;;;;;;;5.50;1.60;;;12.20;63.00;;;;;;4990750;28;20072;-74
2023/03/27 12:04:36;;;;;;;21.40;2.90;;;12.20;64.10;;;;;;4988015;28;20057;-73
2023/03/27 12:07:23;;;;;;;10.32;1.52;;;11.60;67.60;;;;;;4971046;28;20114;-73
2023/03/27 12:10:11;;;;;;;4.78;1.52;;;10.70;76.00;;;;;;4971297;28;20042;-73
2023/03/27 12:13:09;;;;;;;6.43;1.95;;;9.80;99.90;;;;;;4983218;28;20085;-73
2023/03/27 12:16:02;;;;;;;4.63;1.63;;;9.30;99.90;;;;;;4966021;28;20165;-73
2023/03/27 12:18:52;;;;;;;9.57;2.60;;;9.00;99.90;;;;;;4988181;28;20053;-73
2023/03/27 12:21:24;;;;;;;11.02;2.05;;;8.80;99.90;;;;;;4986298;28;21520;-73
2023/03/27 12:24:11;;;;;;;7.93;1.48;;;9.00;99.90;;;;;;4985829;28;20093;-73
2023/03/27 12:27:08;;;;;;;6.25;3.00;;;9.30;99.90;;;;;;4987919;28;20651;-73
2023/03/27 12:29:47;;;;;;;7.68;2.15;;;9.50;99.90;;;;;;4981286;28;20132;-73
2023/03/27 12:32:38;;;;;;;8.48;2.95;;;9.70;99.90;;;;;;4970873;28;20049;-73
2023/03/27 12:35:21;;;;;;;5.53;1.85;;;9.90;99.90;;;;;;4965972;28;20042;-73
2023/03/27 12:37:56;;;;;;;7.32;2.60;;;10.10;99.90;;;;;;4971092;28;20086;-73
2023/03/27 12:40:30;;;;;;;4.60;1.90;;;10.20;99.90;;;;;;4987921;28;20050;-73
2023/03/27 12:43:38;;;;;;;10.90;1.55;;;10.30;99.90;;;;;;4988611;28;20038;-73
2023/03/27 12:46:22;;;;;;;8.20;1.80;;;10.40;99.90;;;;;;4986820;28;20069;-74
2023/03/27 12:48:57;;;;;;;4.20;1.45;;;10.20;99.90;;;;;;4983520;28;20054;-74
2023/03/27 12:51:47;;;;;;;8.45;2.85;;;10.20;90.20;;;;;;4987829;28;20051;-74
2023/03/27 12:54:18;;;;;;;7.35;2.15;;;10.20;83.70;;;;;;4989399;28;20133;-74
2023/03/27 12:57:04;;;;;;;10.32;1.75;;;10.40;83.10;;;;;;4985949;28;20054;-74
2023/03/27 12:59:52;;;;;;;6.70;2.08;;;10.50;76.00;;;;;;4986716;28;20065;-74
2023/03/27 13:03:01;;;;;;;9.98;2.42;;;10.50;74.10;;;;;;4963291;28;20058;-74
2023/03/27 13:05:40;;;;;;;8.43;1.98;;;10.60;72.00;;;;;;4971235;28;20110;-75
2023/03/27 13:08:33;;;;;;;6.78;2.15;;;10.50;71.50;;;;;;4970147;28;20050;-74
2023/03/27 13:11:37;;;;;;;10.05;2.33;;;10.30;72.00;;;;;;4990657;28;20054;-74
2023/03/27 13:14:29;;;;;;;6.28;2.03;;;10.20;75.20;;;;;;4988630;28;20038;-74
2023/03/27 13:17:21;;;;;;;12.93;2.00;;;10.20;72.60;;;;;;4957370;28;20062;-74
2023/03/27 13:20:06;;;;;;;7.25;2.42;;;10.00;73.80;;;;;;4991186;28;20054;-74
2023/03/27 13:22:53;;;;;;;4.25;1.92;;;9.80;76.50;;;;;;4971443;28;20054;-74
2023/03/27 13:25:43;;;;;;;4.47;1.75;;;9.40;93.40;;;;;;4986824;28;20505;-74
2023/03/27 13:28:27;;;;;;;4.55;2.22;;;9.10;99.90;;;;;;4991988;28;20188;-74